createdAt,value
2023-01-04T00:01:22.183Z,5.20
2023-01-04T00:03:50.233Z,5.30
2023-01-04T00:06:19.137Z,5.30
2023-01-04T00:08:46.924Z,5.30
2023-01-04T00:11:18.605Z,5.30
2023-01-04T00:13:46.703Z,5.30
2023-01-04T00:16:16.790Z,5.30
2023-01-04T00:18:45.346Z,5.40
2023-01-04T00:21:15.533Z,5.40
2023-01-04T00:23:45.799Z,5.40
2023-01-04T00:26:17.669Z,5.40
2023-01-04T00:28:51.677Z,5.50
2023-01-04T00:31:22.337Z,5.40
2023-01-04T00:33:50.638Z,5.50
2023-01-04T00:36:18.860Z,5.50
2023-01-04T00:38:46.803Z,5.60
2023-01-04T00:41:56.418Z,5.60
2023-01-04T00:44:08.066Z,5.60
2023-01-04T00:46:37.099Z,5.60
2023-01-04T00:49:06.503Z,5.70
2023-01-04T00:51:35.803Z,5.70
2023-01-04T00:54:05.525Z,5.70
2023-01-04T00:56:35.529Z,5.70
2023-01-04T00:59:06.324Z,5.70
2023-01-04T01:01:35.552Z,5.80
2023-01-04T01:04:05.249Z,5.80
2023-01-04T01:06:34.779Z,5.80
2023-01-04T01:09:03.032Z,5.80
2023-01-04T01:11:31.758Z,5.90
2023-01-04T01:14:01.346Z,5.90
2023-01-04T01:16:53.662Z,5.90
2023-01-04T01:19:17.451Z,5.90
2023-01-04T01:21:45.234Z,5.90
2023-01-04T01:24:17.643Z,5.90
2023-01-04T01:26:45.936Z,5.90
2023-01-04T01:29:15.559Z,5.90
2023-01-04T01:31:43.842Z,5.90
2023-01-04T01:34:12.317Z,5.90
2023-01-04T01:36:40.251Z,5.90
2023-01-04T01:39:08.360Z,5.90
2023-01-04T01:41:37.080Z,5.90
2023-01-04T01:44:07.860Z,5.90
2023-01-04T01:46:41.505Z,5.90
2023-01-04T01:49:14.979Z,5.90
2023-01-04T01:51:43.991Z,6.00
2023-01-04T01:54:15.018Z,6.00
2023-01-04T01:56:44.552Z,5.90
2023-01-04T01:59:14.505Z,6.00
2023-01-04T02:01:43.901Z,6.00
2023-01-04T02:04:13.271Z,6.00
2023-01-04T02:06:45.051Z,6.00
2023-01-04T02:09:13.379Z,6.00
2023-01-04T02:11:41.086Z,6.00
2023-01-04T02:14:28.562Z,6.00
2023-01-04T02:17:07.819Z,6.00
2023-01-04T02:20:00.729Z,6.10
2023-01-04T02:22:54.360Z,6.10
2023-01-04T02:25:56.740Z,6.10
2023-01-04T02:28:35.872Z,6.10
2023-01-04T02:31:32.025Z,6.10
2023-01-04T02:34:05.935Z,6.10
2023-01-04T02:36:38.496Z,6.10
2023-01-04T02:39:17.980Z,6.10
2023-01-04T02:41:51.731Z,6.20
2023-01-04T02:44:46.039Z,6.20
2023-01-04T02:47:18.349Z,6.20
2023-01-04T02:50:05.419Z,6.20
2023-01-04T02:52:34.099Z,6.20
2023-01-04T02:55:05.640Z,6.20
2023-01-04T02:57:45.036Z,6.20
2023-01-04T03:00:58.833Z,6.20
2023-01-04T03:03:55.456Z,6.30
2023-01-04T03:06:31.175Z,6.30
2023-01-04T03:09:05.480Z,6.30
2023-01-04T03:11:59.464Z,6.30
2023-01-04T03:14:33.572Z,6.30
2023-01-04T03:17:06.128Z,6.30
2023-01-04T03:19:54.733Z,6.30
2023-01-04T03:22:45.850Z,6.30
2023-01-04T03:25:32.574Z,6.30
2023-01-04T03:28:19.132Z,6.40
2023-01-04T03:31:12.162Z,6.40
2023-01-04T03:33:57.899Z,6.40
2023-01-04T03:36:43.326Z,6.40
2023-01-04T03:39:34.758Z,6.40
2023-01-04T03:42:26.746Z,6.40
2023-01-04T03:45:18.023Z,6.40
2023-01-04T03:48:10.708Z,6.40
2023-01-04T03:50:42.465Z,6.40
2023-01-04T03:53:13.412Z,6.50
2023-01-04T03:55:44.054Z,6.50
2023-01-04T03:58:12.505Z,6.50
2023-01-04T04:00:40.285Z,6.50
2023-01-04T04:03:12.130Z,6.50
2023-01-04T04:05:58.719Z,6.50
2023-01-04T04:08:28.661Z,6.50
2023-01-04T04:11:18.998Z,6.60
2023-01-04T04:13:46.829Z,6.50
2023-01-04T04:16:14.614Z,6.50
2023-01-04T04:18:42.408Z,6.60
2023-01-04T04:21:10.313Z,6.60
2023-01-04T04:23:39.391Z,6.60
2023-01-04T04:26:07.497Z,6.60
2023-01-04T04:28:35.203Z,6.60
2023-01-04T04:31:03.087Z,6.70
2023-01-04T04:33:30.820Z,6.70
2023-01-04T04:35:58.631Z,6.70
2023-01-04T04:38:26.360Z,6.70
2023-01-04T04:41:24.568Z,6.70
2023-01-04T04:43:52.343Z,6.70
2023-01-04T04:46:20.106Z,6.70
2023-01-04T04:48:47.859Z,6.80
2023-01-04T04:51:15.655Z,6.80
2023-01-04T04:53:43.595Z,6.80
2023-01-04T04:56:12.663Z,6.80
2023-01-04T04:58:40.445Z,6.80
2023-01-04T05:01:08.832Z,6.90
2023-01-04T05:03:36.759Z,6.90
2023-01-04T05:06:05.044Z,6.90
2023-01-04T05:08:32.885Z,6.90
2023-01-04T05:11:00.644Z,6.90
2023-01-04T05:13:28.742Z,6.90
2023-01-04T05:15:56.457Z,7.00
2023-01-04T05:18:24.682Z,7.00
2023-01-04T05:20:52.454Z,7.00
2023-01-04T05:23:21.832Z,7.00
2023-01-04T05:25:53.273Z,7.00
2023-01-04T05:28:21.078Z,7.00
2023-01-04T05:30:50.869Z,7.10
2023-01-04T05:33:19.676Z,7.10
2023-01-04T05:35:47.424Z,7.10
2023-01-04T05:38:15.417Z,7.10
2023-01-04T05:40:43.420Z,7.10
2023-01-04T05:43:11.271Z,7.10
2023-01-04T05:45:39.069Z,7.10
2023-01-04T05:48:08.686Z,7.10
2023-01-04T05:50:36.737Z,7.10
2023-01-04T05:53:04.538Z,7.20
2023-01-04T05:55:32.724Z,7.20
2023-01-04T05:58:00.492Z,7.20
2023-01-04T06:00:28.525Z,7.20
2023-01-04T06:02:57.184Z,7.20
2023-01-04T06:05:27.021Z,7.20
2023-01-04T06:07:54.732Z,7.20
2023-01-04T06:10:22.801Z,7.30
2023-01-04T06:12:50.565Z,7.20
2023-01-04T06:15:18.589Z,7.30
2023-01-04T06:17:46.340Z,7.30
2023-01-04T06:20:14.142Z,7.30
2023-01-04T06:22:43.329Z,7.30
2023-01-04T06:25:11.503Z,7.30
2023-01-04T06:27:39.321Z,7.30
2023-01-04T06:30:08.129Z,7.30
2023-01-04T06:32:36.110Z,7.40
2023-01-04T06:35:03.939Z,7.40
2023-01-04T06:37:31.696Z,7.40
2023-01-04T06:40:00.863Z,7.40
2023-01-04T06:42:47.076Z,7.40
2023-01-04T06:45:15.346Z,7.50
2023-01-04T06:47:43.369Z,7.40
2023-01-04T06:50:11.807Z,7.50
2023-01-04T06:52:39.599Z,7.50
2023-01-04T06:55:10.128Z,7.50
2023-01-04T06:57:37.999Z,7.50
2023-01-04T07:00:07.831Z,7.50
2023-01-04T07:02:36.090Z,7.50
2023-01-04T07:05:04.580Z,7.50
2023-01-04T07:07:33.480Z,7.60
2023-01-04T07:10:07.085Z,7.60
2023-01-04T07:12:39.919Z,7.60
2023-01-04T07:15:38.847Z,7.60
2023-01-04T07:17:56.465Z,7.60
2023-01-04T07:20:24.512Z,7.60
2023-01-04T07:22:52.828Z,7.70
2023-01-04T07:25:21.527Z,7.70
2023-01-04T07:27:53.811Z,7.70
2023-01-04T07:30:22.780Z,7.70
2023-01-04T07:32:52.000Z,7.80
2023-01-04T07:35:20.282Z,7.70
2023-01-04T07:37:53.727Z,7.80
2023-01-04T07:40:25.642Z,7.80
2023-01-04T07:42:59.043Z,7.80
2023-01-04T07:45:27.518Z,7.80
2023-01-04T07:47:55.337Z,7.80
2023-01-04T07:50:23.107Z,7.80
2023-01-04T07:52:50.847Z,7.80
2023-01-04T07:55:18.679Z,7.80
2023-01-04T07:57:46.396Z,7.80
2023-01-04T08:00:16.535Z,7.80
2023-01-04T08:02:44.439Z,7.90
2023-01-04T08:05:12.377Z,7.90
2023-01-04T08:07:40.202Z,7.90
2023-01-04T08:10:09.336Z,7.90
2023-01-04T08:12:37.180Z,7.90
2023-01-04T08:15:05.500Z,7.90
2023-01-04T08:17:34.961Z,7.90
2023-01-04T08:20:02.738Z,8.00
2023-01-04T08:22:30.511Z,8.00
2023-01-04T08:24:58.293Z,8.00
2023-01-04T08:27:26.143Z,8.00
2023-01-04T08:29:53.889Z,8.10
2023-01-04T08:32:21.706Z,8.10
2023-01-04T08:34:50.810Z,8.10
2023-01-04T08:37:18.536Z,8.10
2023-01-04T08:39:49.205Z,8.10
2023-01-04T08:42:26.662Z,8.20
2023-01-04T08:45:00.931Z,8.20
2023-01-04T08:47:29.539Z,8.20
2023-01-04T08:50:02.112Z,8.20
2023-01-04T08:52:34.011Z,8.20
2023-01-04T08:55:05.530Z,8.20
2023-01-04T08:57:36.237Z,8.20
2023-01-04T09:00:05.776Z,8.30
2023-01-04T09:02:33.645Z,8.30
2023-01-04T09:05:04.093Z,8.30
2023-01-04T09:07:32.789Z,8.30
2023-01-04T09:10:01.334Z,8.30
2023-01-04T09:12:29.155Z,8.40
2023-01-04T09:14:56.909Z,8.40
2023-01-04T09:17:25.437Z,8.40
2023-01-04T09:19:53.225Z,8.40
2023-01-04T09:22:22.363Z,8.40
2023-01-04T09:24:50.129Z,8.40
2023-01-04T09:27:17.852Z,8.50
2023-01-04T09:29:45.592Z,8.50
2023-01-04T09:32:16.764Z,8.50
2023-01-04T09:34:44.871Z,8.60
2023-01-04T09:37:12.622Z,8.60
2023-01-04T09:39:42.181Z,8.70
2023-01-04T09:42:20.883Z,8.70
2023-01-04T09:45:22.542Z,8.70
2023-01-04T09:47:44.681Z,8.80
2023-01-04T09:50:17.678Z,8.80
2023-01-04T09:52:52.587Z,8.80
2023-01-04T09:55:37.849Z,8.90
2023-01-04T09:58:18.690Z,8.90
2023-01-04T10:00:49.640Z,8.90
2023-01-04T10:03:23.532Z,9.00
2023-01-04T10:05:53.738Z,9.00
2023-01-04T10:08:21.895Z,9.10
2023-01-04T10:10:58.435Z,9.10
2023-01-04T10:13:49.685Z,9.10
2023-01-04T10:16:52.637Z,9.10
2023-01-04T10:22:26.644Z,9.20
2023-01-04T10:25:04.016Z,9.30
2023-01-04T10:27:42.883Z,9.30
2023-01-04T10:30:27.007Z,9.40
2023-01-04T10:33:05.498Z,9.40
2023-01-04T10:35:34.077Z,9.40
2023-01-04T10:38:04.305Z,9.40
2023-01-04T10:40:39.270Z,9.40
2023-01-04T10:43:15.520Z,9.40
2023-01-04T10:45:50.895Z,9.40
2023-01-04T10:48:28.122Z,9.40
2023-01-04T10:50:58.318Z,9.40
2023-01-04T10:53:33.505Z,9.40
2023-01-04T10:56:26.155Z,9.40
2023-01-04T10:59:03.050Z,9.40
2023-01-04T11:01:35.860Z,9.40
2023-01-04T11:04:10.333Z,9.40
2023-01-04T11:06:45.608Z,9.30
2023-01-04T11:09:24.836Z,9.30
2023-01-04T11:11:56.005Z,9.30
2023-01-04T11:14:27.722Z,9.30
2023-01-04T11:17:02.096Z,9.30
2023-01-04T11:19:30.625Z,9.30
2023-01-04T11:22:02.239Z,9.30
2023-01-04T11:24:33.264Z,9.30
2023-01-04T11:27:06.767Z,9.30
2023-01-04T11:29:41.896Z,9.30
2023-01-04T11:32:17.997Z,9.30
2023-01-04T11:34:49.587Z,9.30
2023-01-04T11:37:33.383Z,9.30
2023-01-04T11:40:19.810Z,9.30
2023-01-04T11:42:49.317Z,9.30
2023-01-04T11:45:24.987Z,9.30
2023-01-04T11:47:55.039Z,9.30
2023-01-04T11:50:38.492Z,9.30
2023-01-04T11:53:24.105Z,9.30
2023-01-04T11:55:52.550Z,9.30
2023-01-04T11:58:20.972Z,9.30
2023-01-04T12:00:55.126Z,9.30
2023-01-04T12:03:29.434Z,9.30
2023-01-04T12:05:58.369Z,9.30
2023-01-04T12:08:31.787Z,9.30
2023-01-04T12:11:01.227Z,9.30
2023-01-04T12:13:29.808Z,9.40
2023-01-04T12:16:09.054Z,9.40
2023-01-04T12:18:39.757Z,9.40
2023-01-04T12:21:07.541Z,9.40
2023-01-04T12:23:35.395Z,9.40
2023-01-04T12:26:03.601Z,9.40
2023-01-04T12:28:35.007Z,9.40
2023-01-04T12:31:30.961Z,9.40
2023-01-04T12:34:00.622Z,9.40
2023-01-04T12:36:59.869Z,9.50
2023-01-04T12:39:41.835Z,9.50
2023-01-04T12:42:17.469Z,9.50
2023-01-04T12:45:12.622Z,9.50
2023-01-04T12:48:01.058Z,9.50
2023-01-04T12:50:31.064Z,9.50
2023-01-04T12:55:56.173Z,9.60
2023-01-04T12:59:23.726Z,9.60
2023-01-04T13:01:31.553Z,9.60
2023-01-04T13:04:05.942Z,9.60
2023-01-04T13:06:43.439Z,9.60
2023-01-04T13:09:23.719Z,9.60
2023-01-04T13:12:09.270Z,9.70
2023-01-04T13:14:41.328Z,9.60
2023-01-04T13:17:19.145Z,9.70
2023-01-04T13:19:49.296Z,9.70
2023-01-04T13:22:26.607Z,9.70
2023-01-04T13:24:58.491Z,9.70
2023-01-04T13:27:27.546Z,9.80
2023-01-04T13:29:55.505Z,9.70
2023-01-04T13:32:25.473Z,9.80
2023-01-04T13:34:59.518Z,9.80
2023-01-04T13:37:32.871Z,9.80
2023-01-04T13:40:21.107Z,9.80
2023-01-04T13:42:51.157Z,9.80
2023-01-04T13:45:38.319Z,9.80
2023-01-04T13:48:11.112Z,9.80
2023-01-04T13:50:44.038Z,9.80
2023-01-04T13:53:20.250Z,9.90
2023-01-04T13:55:52.444Z,9.90
2023-01-04T13:58:22.557Z,9.90
2023-01-04T14:00:55.319Z,9.90
2023-01-04T14:03:42.197Z,9.90
2023-01-04T14:06:18.272Z,9.90
2023-01-04T14:08:57.412Z,9.90
2023-01-04T14:11:46.712Z,9.90
2023-01-04T14:14:23.512Z,9.90
2023-01-04T14:16:52.663Z,10.00
2023-01-04T14:19:42.938Z,10.00
2023-01-04T14:22:26.663Z,10.00
2023-01-04T14:25:11.710Z,10.00
2023-01-04T14:27:41.330Z,10.10
2023-01-04T14:30:25.317Z,10.10
2023-01-04T14:32:58.769Z,10.10
2023-01-04T14:35:28.401Z,10.20
2023-01-04T14:38:03.197Z,10.20
2023-01-04T14:40:32.067Z,10.20
2023-01-04T14:43:00.142Z,10.20
2023-01-04T14:45:27.882Z,10.30
2023-01-04T14:47:55.605Z,10.40
2023-01-04T14:50:23.337Z,10.40
2023-01-04T14:52:55.147Z,10.40
2023-01-04T14:55:24.698Z,10.50
2023-01-04T14:57:52.414Z,10.60
2023-01-04T15:00:20.430Z,10.60
2023-01-04T15:02:50.788Z,10.70
2023-01-04T15:05:20.113Z,10.70
2023-01-04T15:07:48.371Z,10.80
2023-01-04T15:10:22.503Z,10.80
2023-01-04T15:12:51.791Z,10.80
2023-01-04T15:15:19.961Z,10.90
2023-01-04T15:17:48.001Z,10.90
2023-01-04T15:20:15.786Z,10.90
2023-01-04T15:22:44.084Z,10.90
2023-01-04T15:25:12.387Z,10.90
2023-01-04T15:27:42.467Z,11.00
2023-01-04T15:30:13.029Z,11.00
2023-01-04T15:32:40.959Z,11.00
2023-01-04T15:35:09.344Z,11.00
2023-01-04T15:37:37.389Z,11.00
2023-01-04T15:40:05.892Z,11.00
2023-01-04T15:42:51.048Z,11.00
2023-01-04T15:45:21.072Z,11.00
2023-01-04T15:47:48.799Z,11.00
2023-01-04T15:50:16.652Z,11.00
2023-01-04T15:52:44.455Z,11.00
2023-01-04T15:55:12.972Z,11.00
2023-01-04T15:57:43.973Z,11.00
2023-01-04T16:00:13.371Z,11.00
2023-01-04T16:02:42.783Z,11.00
2023-01-04T16:05:11.186Z,11.00
2023-01-04T16:07:39.000Z,11.00
2023-01-04T16:10:07.858Z,11.00
2023-01-04T16:12:44.650Z,11.00
2023-01-04T16:15:15.356Z,11.00
2023-01-04T16:17:45.980Z,11.00
2023-01-04T16:20:15.892Z,11.00
2023-01-04T16:22:43.859Z,10.90
2023-01-04T16:25:12.696Z,10.90
2023-01-04T16:27:40.996Z,10.80
2023-01-04T16:30:13.299Z,10.80
2023-01-04T16:32:45.346Z,10.80
2023-01-04T16:35:13.319Z,10.80
2023-01-04T16:37:42.787Z,10.80
2023-01-04T16:40:11.825Z,10.80
2023-01-04T16:42:40.330Z,10.80
2023-01-04T16:45:09.270Z,10.80
2023-01-04T16:47:41.880Z,10.80
2023-01-04T16:50:12.144Z,10.80
2023-01-04T16:52:39.954Z,10.70
2023-01-04T16:55:08.854Z,10.70
2023-01-04T16:57:36.588Z,10.80
2023-01-04T17:00:05.598Z,10.80
2023-01-04T17:02:33.442Z,10.80
2023-01-04T17:05:01.258Z,10.80
2023-01-04T17:07:32.960Z,10.80
2023-01-04T17:10:01.534Z,10.80
2023-01-04T17:12:46.898Z,10.80
2023-01-04T17:15:44.971Z,10.80
2023-01-04T17:18:04.175Z,10.80
2023-01-04T17:20:32.000Z,10.80
2023-01-04T17:23:01.095Z,10.80
2023-01-04T17:25:29.930Z,10.80
2023-01-04T17:27:57.789Z,10.70
2023-01-04T17:30:25.522Z,10.80
2023-01-04T17:32:53.275Z,10.80
2023-01-04T17:35:21.075Z,10.80
2023-01-04T17:37:48.800Z,10.70
2023-01-04T17:40:22.971Z,10.70
2023-01-04T17:42:51.420Z,10.70
2023-01-04T17:45:20.132Z,10.70
2023-01-04T17:47:48.287Z,10.70
2023-01-04T17:50:17.312Z,10.70
2023-01-04T17:52:45.197Z,10.70
2023-01-04T17:55:12.924Z,10.70
2023-01-04T18:00:14.556Z,10.70
2023-01-04T18:02:42.423Z,10.70
2023-01-04T18:05:11.439Z,10.70
2023-01-04T18:07:39.388Z,10.60
2023-01-04T18:10:07.581Z,10.60
2023-01-04T18:12:35.316Z,10.60
2023-01-04T18:15:06.305Z,10.60
2023-01-04T18:17:34.185Z,10.60
2023-01-04T18:20:01.922Z,10.60
2023-01-04T18:22:29.651Z,10.60
2023-01-04T18:24:57.419Z,10.60
2023-01-04T18:27:26.491Z,10.60
2023-01-04T18:29:56.553Z,10.60
2023-01-04T18:32:27.231Z,10.60
2023-01-04T18:34:55.157Z,10.60
2023-01-04T18:37:22.913Z,10.60
2023-01-04T18:39:50.745Z,10.60
2023-01-04T18:42:18.847Z,10.60
2023-01-04T18:44:49.608Z,10.60
2023-01-04T18:47:19.544Z,10.60
2023-01-04T18:49:48.865Z,10.60
2023-01-04T18:52:17.041Z,10.50
2023-01-04T18:54:45.285Z,10.60
2023-01-04T18:57:13.050Z,10.50
2023-01-04T18:59:41.685Z,10.50
2023-01-04T19:02:16.415Z,10.50
2023-01-04T19:04:44.431Z,10.50
2023-01-04T19:07:13.475Z,10.50
2023-01-04T19:09:42.385Z,10.60
2023-01-04T19:12:10.710Z,10.50
2023-01-04T19:14:38.477Z,10.50
2023-01-04T19:17:06.249Z,10.50
2023-01-04T19:19:34.809Z,10.50
2023-01-04T19:22:02.712Z,10.50
2023-01-04T19:24:31.791Z,10.50
2023-01-04T19:27:02.939Z,10.50
2023-01-04T19:29:31.147Z,10.50
2023-01-04T19:31:58.968Z,10.50
2023-01-04T19:34:26.738Z,10.50
2023-01-04T19:36:54.471Z,10.50
2023-01-04T19:39:22.195Z,10.50
2023-01-04T19:41:51.301Z,10.50
2023-01-04T19:44:19.181Z,10.50
2023-01-04T19:46:46.914Z,10.50
2023-01-04T19:49:15.657Z,10.50
2023-01-04T19:51:46.262Z,10.60
2023-01-04T19:54:17.388Z,10.60
2023-01-04T19:56:50.883Z,10.60
2023-01-04T19:59:18.681Z,10.60
2023-01-04T20:01:46.511Z,10.60
2023-01-04T20:04:14.792Z,10.60
2023-01-04T20:06:42.518Z,10.60
2023-01-04T20:09:10.281Z,10.60
2023-01-04T20:11:38.210Z,10.60
2023-01-04T20:14:07.321Z,10.60
2023-01-04T20:16:35.120Z,10.50
2023-01-04T20:19:02.871Z,10.60
2023-01-04T20:21:30.613Z,10.60
2023-01-04T20:23:59.384Z,10.60
2023-01-04T20:26:27.456Z,10.60
2023-01-04T20:28:55.268Z,10.60
2023-01-04T20:31:24.445Z,10.60
2023-01-04T20:33:52.248Z,10.60
2023-01-04T20:36:22.288Z,10.60
2023-01-04T20:38:50.547Z,10.60
2023-01-04T20:41:21.038Z,10.60
2023-01-04T20:43:48.911Z,10.60
2023-01-04T20:46:19.232Z,10.60
2023-01-04T20:48:48.603Z,10.60
2023-01-04T20:51:18.779Z,10.60
2023-01-04T20:53:46.903Z,10.60
2023-01-04T20:56:17.792Z,10.60
2023-01-04T20:58:46.760Z,10.60
2023-01-04T21:01:15.875Z,10.60
2023-01-04T21:03:43.957Z,10.60
2023-01-04T21:06:14.568Z,10.60
2023-01-04T21:08:43.688Z,10.60
2023-01-04T21:11:15.827Z,10.50
2023-01-04T21:13:44.149Z,10.50
2023-01-04T21:16:12.561Z,10.50
2023-01-04T21:18:40.377Z,10.50
2023-01-04T21:21:09.091Z,10.50
2023-01-04T21:23:38.187Z,10.50
2023-01-04T21:26:07.162Z,10.50
2023-01-04T21:28:35.812Z,10.50
2023-01-04T21:31:03.651Z,10.50
2023-01-04T21:33:31.424Z,10.40
2023-01-04T21:35:59.428Z,10.50
2023-01-04T21:38:27.140Z,10.40
2023-01-04T21:40:56.205Z,10.50
2023-01-04T21:43:23.957Z,10.50
2023-01-04T21:45:51.731Z,10.50
2023-01-04T21:48:19.463Z,10.50
2023-01-04T21:50:47.213Z,10.50
2023-01-04T21:53:14.937Z,10.50
2023-01-04T21:55:42.687Z,10.50
2023-01-04T21:58:11.737Z,10.40
2023-01-04T22:00:40.491Z,10.40
2023-01-04T22:03:08.582Z,10.40
2023-01-04T22:05:36.428Z,10.40
2023-01-04T22:08:04.186Z,10.40
2023-01-04T22:10:31.918Z,10.40
2023-01-04T22:12:59.692Z,10.40
2023-01-04T22:15:28.829Z,10.50
2023-01-04T22:17:56.559Z,10.50
2023-01-04T22:20:24.346Z,10.50
2023-01-04T22:22:52.075Z,10.50
2023-01-04T22:25:21.137Z,10.50
2023-01-04T22:27:50.823Z,10.50
2023-01-04T22:30:18.661Z,10.40
2023-01-04T22:32:49.293Z,10.50
2023-01-04T22:35:17.337Z,10.50
2023-01-04T22:37:45.079Z,10.50
2023-01-04T22:40:14.124Z,10.50
2023-01-04T22:42:42.108Z,10.40
2023-01-04T22:45:13.180Z,10.40
2023-01-04T22:47:41.426Z,10.40
2023-01-04T22:50:11.412Z,10.40
2023-01-04T22:52:39.201Z,10.40
2023-01-04T22:55:07.283Z,10.40
2023-01-04T22:57:35.015Z,10.40
2023-01-04T23:00:03.869Z,10.40
2023-01-04T23:02:31.640Z,10.40
2023-01-04T23:04:59.463Z,10.40
2023-01-04T23:07:28.530Z,10.30
2023-01-04T23:09:56.284Z,10.30
2023-01-04T23:12:24.080Z,10.30
2023-01-04T23:14:51.790Z,10.30
2023-01-04T23:17:19.527Z,10.40
2023-01-04T23:19:47.276Z,10.40
2023-01-04T23:22:15.044Z,10.40
2023-01-04T23:24:44.134Z,10.40
2023-01-04T23:27:11.884Z,10.40
2023-01-04T23:29:39.616Z,10.30
2023-01-04T23:32:07.453Z,10.30
2023-01-04T23:34:35.259Z,10.30
2023-01-04T23:37:03.029Z,10.30
2023-01-04T23:39:30.837Z,10.30
2023-01-04T23:41:59.969Z,10.30
2023-01-04T23:44:30.904Z,10.30
2023-01-04T23:47:00.617Z,10.30
2023-01-04T23:49:30.780Z,10.30
2023-01-04T23:51:58.993Z,10.30
2023-01-04T23:54:28.346Z,10.30
2023-01-04T23:56:56.614Z,10.20
2023-01-04T23:59:25.912Z,10.30
